MYR weather

Myrtle Beach International Airport
Myrtle Beach, South Carolina, United States

Public forecast

Using degrees Fahrenheit for public forecast. Weather courtesy of forecast.io.

Current aviation weather report (METAR) for Myrtle Beach International Airport

Retrieved 2020/06/05 07:56 UTC (37 minutes ago):

KMYR 050756Z AUTO 17010KT 10SM FEW009 SCT095 BKN120 23/22 A2999 RMK AO2 SLP155 P0001 T02330222

Aviation forecast (TAF) for Myrtle Beach International Airport

Retrieved 2020/06/05 06:22 UTC (2 hours ago):

TAF KMYR 050520Z 0506/0606 16008KT P6SM FEW015 BKN090 FM050800 18008KT P6SM VCSH BKN040 TEMPO 0508/0512 3SM SHRA BKN020 FM051200 19008KT P6SM VCSH BKN025 FM051600 19011KT P6SM VCTS BKN040CB FM051800 18013G21KT P6SM BKN050 FM060200 22008KT P6SM BKN025